sensor_id;sensor_type;location;lat;lon;timestamp;P1;durP1;ratioP1;P2;durP2;ratioP2
15281;SDS011;7742;44.320;19.820;2022-11-15T00:01:23;98.73;;;81.17;;
15281;SDS011;7742;44.320;19.820;2022-11-15T00:03:51;101.73;;;80.40;;
15281;SDS011;7742;44.320;19.820;2022-11-15T00:06:19;108.37;;;82.57;;
15281;SDS011;7742;44.320;19.820;2022-11-15T00:08:47;103.67;;;82.03;;
15281;SDS011;7742;44.320;19.820;2022-11-15T00:11:15;111.83;;;84.17;;
15281;SDS011;7742;44.320;19.820;2022-11-15T00:13:50;108.33;;;83.70;;
15281;SDS011;7742;44.320;19.820;2022-11-15T00:16:35;107.90;;;86.03;;
15281;SDS011;7742;44.320;19.820;2022-11-15T00:19:02;115.27;;;87.87;;
15281;SDS011;7742;44.320;19.820;2022-11-15T00:21:31;104.73;;;85.50;;
15281;SDS011;7742;44.320;19.820;2022-11-15T00:23:58;110.53;;;84.10;;
15281;SDS011;7742;44.320;19.820;2022-11-15T00:26:30;107.57;;;85.90;;
15281;SDS011;7742;44.320;19.820;2022-11-15T00:28:57;110.87;;;84.47;;
15281;SDS011;7742;44.320;19.820;2022-11-15T00:31:25;113.17;;;89.53;;
15281;SDS011;7742;44.320;19.820;2022-11-15T00:33:52;111.80;;;88.73;;
15281;SDS011;7742;44.320;19.820;2022-11-15T00:36:19;109.50;;;85.10;;
15281;SDS011;7742;44.320;19.820;2022-11-15T00:38:48;112.23;;;87.27;;
15281;SDS011;7742;44.320;19.820;2022-11-15T00:41:15;101.10;;;83.37;;
15281;SDS011;7742;44.320;19.820;2022-11-15T00:43:42;99.07;;;81.70;;
15281;SDS011;7742;44.320;19.820;2022-11-15T00:46:09;100.47;;;83.17;;
15281;SDS011;7742;44.320;19.820;2022-11-15T00:48:37;96.80;;;79.23;;
15281;SDS011;7742;44.320;19.820;2022-11-15T00:51:04;93.63;;;80.90;;
15281;SDS011;7742;44.320;19.820;2022-11-15T00:53:31;99.00;;;80.60;;
15281;SDS011;7742;44.320;19.820;2022-11-15T00:56:00;101.50;;;80.77;;
15281;SDS011;7742;44.320;19.820;2022-11-15T00:58:27;105.33;;;85.57;;
15281;SDS011;7742;44.320;19.820;2022-11-15T01:00:55;106.30;;;83.27;;
15281;SDS011;7742;44.320;19.820;2022-11-15T01:03:22;99.70;;;87.20;;
15281;SDS011;7742;44.320;19.820;2022-11-15T01:05:49;97.43;;;81.00;;
15281;SDS011;7742;44.320;19.820;2022-11-15T01:08:17;106.77;;;86.33;;
15281;SDS011;7742;44.320;19.820;2022-11-15T01:10:44;103.07;;;83.50;;
15281;SDS011;7742;44.320;19.820;2022-11-15T01:13:15;100.63;;;81.87;;
15281;SDS011;7742;44.320;19.820;2022-11-15T01:15:48;98.80;;;81.33;;
15281;SDS011;7742;44.320;19.820;2022-11-15T01:18:15;95.87;;;77.93;;
15281;SDS011;7742;44.320;19.820;2022-11-15T01:20:43;94.63;;;80.60;;
15281;SDS011;7742;44.320;19.820;2022-11-15T01:23:10;90.63;;;77.63;;
15281;SDS011;7742;44.320;19.820;2022-11-15T01:25:49;98.30;;;80.23;;
15281;SDS011;7742;44.320;19.820;2022-11-15T01:28:36;97.87;;;80.30;;
15281;SDS011;7742;44.320;19.820;2022-11-15T01:34:58;103.30;;;82.60;;
15281;SDS011;7742;44.320;19.820;2022-11-15T01:37:25;94.67;;;78.53;;
15281;SDS011;7742;44.320;19.820;2022-11-15T01:39:52;92.77;;;80.00;;
15281;SDS011;7742;44.320;19.820;2022-11-15T01:42:19;100.27;;;84.80;;
15281;SDS011;7742;44.320;19.820;2022-11-15T01:44:48;101.23;;;84.17;;
15281;SDS011;7742;44.320;19.820;2022-11-15T01:47:17;97.07;;;82.37;;
15281;SDS011;7742;44.320;19.820;2022-11-15T01:49:49;93.03;;;80.40;;
15281;SDS011;7742;44.320;19.820;2022-11-15T01:52:19;103.80;;;85.93;;
15281;SDS011;7742;44.320;19.820;2022-11-15T01:54:47;100.83;;;89.17;;
15281;SDS011;7742;44.320;19.820;2022-11-15T01:57:16;109.90;;;90.93;;
15281;SDS011;7742;44.320;19.820;2022-11-15T01:59:44;97.93;;;82.00;;
15281;SDS011;7742;44.320;19.820;2022-11-15T02:02:13;99.20;;;81.30;;
15281;SDS011;7742;44.320;19.820;2022-11-15T02:04:41;102.50;;;86.63;;
15281;SDS011;7742;44.320;19.820;2022-11-15T02:07:13;109.43;;;92.63;;
15281;SDS011;7742;44.320;19.820;2022-11-15T02:09:42;112.33;;;90.77;;
15281;SDS011;7742;44.320;19.820;2022-11-15T02:12:10;115.47;;;94.17;;
15281;SDS011;7742;44.320;19.820;2022-11-15T02:14:41;121.83;;;95.43;;
15281;SDS011;7742;44.320;19.820;2022-11-15T02:17:21;112.17;;;94.77;;
15281;SDS011;7742;44.320;19.820;2022-11-15T02:26:37;119.10;;;94.57;;
15281;SDS011;7742;44.320;19.820;2022-11-15T02:29:20;116.73;;;95.90;;
15281;SDS011;7742;44.320;19.820;2022-11-15T02:32:06;110.13;;;88.07;;
15281;SDS011;7742;44.320;19.820;2022-11-15T02:37:56;109.77;;;87.77;;
15281;SDS011;7742;44.320;19.820;2022-11-15T02:40:27;112.70;;;90.57;;
15281;SDS011;7742;44.320;19.820;2022-11-15T02:43:02;110.37;;;91.17;;
15281;SDS011;7742;44.320;19.820;2022-11-15T02:45:48;110.77;;;91.93;;
15281;SDS011;7742;44.320;19.820;2022-11-15T02:48:20;113.67;;;89.87;;
15281;SDS011;7742;44.320;19.820;2022-11-15T02:50:48;102.27;;;88.63;;
15281;SDS011;7742;44.320;19.820;2022-11-15T02:53:15;113.67;;;92.63;;
15281;SDS011;7742;44.320;19.820;2022-11-15T02:55:43;107.87;;;89.60;;
15281;SDS011;7742;44.320;19.820;2022-11-15T02:58:19;107.20;;;87.17;;
15281;SDS011;7742;44.320;19.820;2022-11-15T03:00:59;109.50;;;87.17;;
15281;SDS011;7742;44.320;19.820;2022-11-15T03:03:33;111.87;;;89.97;;
15281;SDS011;7742;44.320;19.820;2022-11-15T03:06:10;98.30;;;82.03;;
15281;SDS011;7742;44.320;19.820;2022-11-15T03:08:45;110.53;;;90.43;;
15281;SDS011;7742;44.320;19.820;2022-11-15T03:11:18;108.20;;;89.67;;
15281;SDS011;7742;44.320;19.820;2022-11-15T03:13:47;107.07;;;89.57;;
15281;SDS011;7742;44.320;19.820;2022-11-15T04:53:42;118.77;;;100.73;;
15281;SDS011;7742;44.320;19.820;2022-11-15T04:56:09;132.87;;;100.10;;
15281;SDS011;7742;44.320;19.820;2022-11-15T04:58:37;134.10;;;103.70;;
15281;SDS011;7742;44.320;19.820;2022-11-15T05:01:06;250.57;;;107.40;;
15281;SDS011;7742;44.320;19.820;2022-11-15T05:03:34;132.00;;;103.50;;
15281;SDS011;7742;44.320;19.820;2022-11-15T05:06:19;136.23;;;103.07;;
15281;SDS011;7742;44.320;19.820;2022-11-15T05:08:47;131.93;;;101.37;;
15281;SDS011;7742;44.320;19.820;2022-11-15T05:11:15;126.83;;;102.83;;
15281;SDS011;7742;44.320;19.820;2022-11-15T05:13:42;137.07;;;105.53;;
15281;SDS011;7742;44.320;19.820;2022-11-15T05:16:09;237.13;;;100.17;;
15281;SDS011;7742;44.320;19.820;2022-11-15T05:18:37;1200.23;;;159.00;;
15281;SDS011;7742;44.320;19.820;2022-11-15T05:21:07;130.00;;;101.27;;
15281;SDS011;7742;44.320;19.820;2022-11-15T05:23:35;130.10;;;99.47;;
15281;SDS011;7742;44.320;19.820;2022-11-15T05:26:04;122.57;;;97.37;;
15281;SDS011;7742;44.320;19.820;2022-11-15T05:28:32;123.93;;;102.10;;
15281;SDS011;7742;44.320;19.820;2022-11-15T05:31:07;128.83;;;102.60;;
15281;SDS011;7742;44.320;19.820;2022-11-15T05:33:49;130.33;;;100.50;;
15281;SDS011;7742;44.320;19.820;2022-11-15T05:36:17;135.40;;;105.10;;
15281;SDS011;7742;44.320;19.820;2022-11-15T05:42:14;189.00;;;108.60;;
15281;SDS011;7742;44.320;19.820;2022-11-15T05:44:43;188.27;;;101.93;;
15281;SDS011;7742;44.320;19.820;2022-11-15T05:47:13;133.00;;;104.10;;
15281;SDS011;7742;44.320;19.820;2022-11-15T05:49:42;137.37;;;107.97;;
15281;SDS011;7742;44.320;19.820;2022-11-15T05:52:11;143.80;;;107.63;;
15281;SDS011;7742;44.320;19.820;2022-11-15T05:54:40;137.47;;;105.83;;
15281;SDS011;7742;44.320;19.820;2022-11-15T05:57:08;139.47;;;99.53;;
15281;SDS011;7742;44.320;19.820;2022-11-15T05:59:36;137.30;;;105.57;;
15281;SDS011;7742;44.320;19.820;2022-11-15T06:02:06;130.47;;;101.43;;
15281;SDS011;7742;44.320;19.820;2022-11-15T06:04:33;141.20;;;105.60;;
15281;SDS011;7742;44.320;19.820;2022-11-15T06:07:00;133.27;;;105.57;;
15281;SDS011;7742;44.320;19.820;2022-11-15T06:09:28;133.63;;;106.83;;
15281;SDS011;7742;44.320;19.820;2022-11-15T06:11:55;142.37;;;108.77;;
15281;SDS011;7742;44.320;19.820;2022-11-15T06:14:22;141.43;;;110.93;;
15281;SDS011;7742;44.320;19.820;2022-11-15T06:16:51;127.90;;;104.70;;
15281;SDS011;7742;44.320;19.820;2022-11-15T06:19:18;144.40;;;106.90;;
15281;SDS011;7742;44.320;19.820;2022-11-15T06:21:46;147.77;;;104.50;;
15281;SDS011;7742;44.320;19.820;2022-11-15T06:24:13;140.17;;;106.37;;
15281;SDS011;7742;44.320;19.820;2022-11-15T06:26:40;139.90;;;104.67;;
15281;SDS011;7742;44.320;19.820;2022-11-15T06:29:09;142.50;;;105.97;;
15281;SDS011;7742;44.320;19.820;2022-11-15T06:31:36;147.30;;;105.23;;
15281;SDS011;7742;44.320;19.820;2022-11-15T06:34:05;650.83;;;136.03;;
15281;SDS011;7742;44.320;19.820;2022-11-15T06:36:33;575.50;;;120.83;;
15281;SDS011;7742;44.320;19.820;2022-11-15T06:39:01;754.07;;;129.37;;
15281;SDS011;7742;44.320;19.820;2022-11-15T06:41:29;408.47;;;131.67;;
15281;SDS011;7742;44.320;19.820;2022-11-15T06:43:56;439.03;;;120.57;;
15281;SDS011;7742;44.320;19.820;2022-11-15T06:46:23;386.80;;;121.80;;
15281;SDS011;7742;44.320;19.820;2022-11-15T06:48:51;202.37;;;117.50;;
15281;SDS011;7742;44.320;19.820;2022-11-15T06:51:20;183.80;;;115.53;;
15281;SDS011;7742;44.320;19.820;2022-11-15T06:53:48;178.07;;;107.87;;
15281;SDS011;7742;44.320;19.820;2022-11-15T06:56:36;367.40;;;115.67;;
15281;SDS011;7742;44.320;19.820;2022-11-15T06:59:03;291.27;;;103.33;;
15281;SDS011;7742;44.320;19.820;2022-11-15T07:01:31;274.27;;;103.20;;
15281;SDS011;7742;44.320;19.820;2022-11-15T07:03:59;450.43;;;110.27;;
15281;SDS011;7742;44.320;19.820;2022-11-15T07:06:36;187.83;;;122.30;;
15281;SDS011;7742;44.320;19.820;2022-11-15T07:09:03;310.40;;;114.50;;
15281;SDS011;7742;44.320;19.820;2022-11-15T07:11:31;130.73;;;100.07;;
15281;SDS011;7742;44.320;19.820;2022-11-15T07:13:59;179.73;;;107.77;;
15281;SDS011;7742;44.320;19.820;2022-11-15T07:16:26;179.97;;;106.43;;
15281;SDS011;7742;44.320;19.820;2022-11-15T07:18:54;145.33;;;110.33;;
15281;SDS011;7742;44.320;19.820;2022-11-15T07:21:21;144.23;;;111.60;;
15281;SDS011;7742;44.320;19.820;2022-11-15T07:23:50;119.30;;;99.00;;
15281;SDS011;7742;44.320;19.820;2022-11-15T07:26:17;683.17;;;136.20;;
15281;SDS011;7742;44.320;19.820;2022-11-15T07:28:45;388.63;;;110.60;;
15281;SDS011;7742;44.320;19.820;2022-11-15T07:31:12;422.83;;;115.07;;
15281;SDS011;7742;44.320;19.820;2022-11-15T07:33:39;154.07;;;105.80;;
15281;SDS011;7742;44.320;19.820;2022-11-15T07:36:07;142.83;;;111.13;;
15281;SDS011;7742;44.320;19.820;2022-11-15T07:38:35;134.57;;;107.37;;
15281;SDS011;7742;44.320;19.820;2022-11-15T07:41:04;137.13;;;110.43;;
15281;SDS011;7742;44.320;19.820;2022-11-15T07:43:33;130.80;;;107.47;;
15281;SDS011;7742;44.320;19.820;2022-11-15T07:46:04;139.90;;;108.40;;
15281;SDS011;7742;44.320;19.820;2022-11-15T07:48:34;137.40;;;113.73;;
15281;SDS011;7742;44.320;19.820;2022-11-15T07:51:01;140.20;;;113.50;;
15281;SDS011;7742;44.320;19.820;2022-11-15T07:53:29;127.67;;;107.33;;
15281;SDS011;7742;44.320;19.820;2022-11-15T07:55:56;129.13;;;105.97;;
15281;SDS011;7742;44.320;19.820;2022-11-15T07:58:25;119.87;;;104.10;;
15281;SDS011;7742;44.320;19.820;2022-11-15T08:00:52;121.00;;;100.37;;
15281;SDS011;7742;44.320;19.820;2022-11-15T08:03:20;116.83;;;101.17;;
15281;SDS011;7742;44.320;19.820;2022-11-15T08:05:50;110.77;;;97.27;;
15281;SDS011;7742;44.320;19.820;2022-11-15T08:08:26;109.63;;;94.27;;
15281;SDS011;7742;44.320;19.820;2022-11-15T08:10:53;109.43;;;95.27;;
15281;SDS011;7742;44.320;19.820;2022-11-15T08:13:20;101.27;;;90.17;;
15281;SDS011;7742;44.320;19.820;2022-11-15T08:15:50;105.50;;;93.10;;
15281;SDS011;7742;44.320;19.820;2022-11-15T08:18:17;106.93;;;93.03;;
15281;SDS011;7742;44.320;19.820;2022-11-15T08:20:44;111.23;;;94.30;;
15281;SDS011;7742;44.320;19.820;2022-11-15T08:23:11;101.80;;;90.70;;
15281;SDS011;7742;44.320;19.820;2022-11-15T08:25:39;100.33;;;87.90;;
15281;SDS011;7742;44.320;19.820;2022-11-15T08:28:10;96.53;;;86.07;;
15281;SDS011;7742;44.320;19.820;2022-11-15T08:30:38;97.20;;;86.67;;
15281;SDS011;7742;44.320;19.820;2022-11-15T08:33:10;99.80;;;88.70;;
15281;SDS011;7742;44.320;19.820;2022-11-15T08:35:38;97.30;;;86.73;;
15281;SDS011;7742;44.320;19.820;2022-11-15T08:38:06;97.57;;;86.87;;
15281;SDS011;7742;44.320;19.820;2022-11-15T08:40:59;112.73;;;101.73;;
15281;SDS011;7742;44.320;19.820;2022-11-15T08:43:28;115.10;;;103.67;;
15281;SDS011;7742;44.320;19.820;2022-11-15T08:45:55;92.03;;;82.33;;
15281;SDS011;7742;44.320;19.820;2022-11-15T08:48:24;95.07;;;85.17;;
15281;SDS011;7742;44.320;19.820;2022-11-15T08:50:53;92.67;;;82.60;;
15281;SDS011;7742;44.320;19.820;2022-11-15T08:53:20;93.77;;;83.60;;
15281;SDS011;7742;44.320;19.820;2022-11-15T08:55:48;96.00;;;86.10;;
15281;SDS011;7742;44.320;19.820;2022-11-15T08:58:15;89.30;;;80.03;;
15281;SDS011;7742;44.320;19.820;2022-11-15T09:00:42;87.27;;;78.13;;
15281;SDS011;7742;44.320;19.820;2022-11-15T09:03:09;89.07;;;80.13;;
15281;SDS011;7742;44.320;19.820;2022-11-15T09:05:38;86.60;;;77.57;;
15281;SDS011;7742;44.320;19.820;2022-11-15T09:08:05;83.97;;;75.50;;
15281;SDS011;7742;44.320;19.820;2022-11-15T09:10:32;86.00;;;77.20;;
15281;SDS011;7742;44.320;19.820;2022-11-15T09:13:00;87.87;;;78.67;;
15281;SDS011;7742;44.320;19.820;2022-11-15T09:15:27;82.20;;;73.63;;
15281;SDS011;7742;44.320;19.820;2022-11-15T09:17:54;79.93;;;71.33;;
15281;SDS011;7742;44.320;19.820;2022-11-15T09:20:24;78.77;;;70.77;;
15281;SDS011;7742;44.320;19.820;2022-11-15T09:22:53;77.63;;;69.63;;
15281;SDS011;7742;44.320;19.820;2022-11-15T09:25:20;79.93;;;72.03;;
15281;SDS011;7742;44.320;19.820;2022-11-15T09:27:47;78.83;;;70.80;;
15281;SDS011;7742;44.320;19.820;2022-11-15T09:30:15;78.73;;;70.70;;
15281;SDS011;7742;44.320;19.820;2022-11-15T09:32:42;80.43;;;72.33;;
15281;SDS011;7742;44.320;19.820;2022-11-15T09:35:09;74.77;;;67.23;;
15281;SDS011;7742;44.320;19.820;2022-11-15T09:37:36;72.83;;;65.50;;
15281;SDS011;7742;44.320;19.820;2022-11-15T09:40:06;75.13;;;67.73;;
15281;SDS011;7742;44.320;19.820;2022-11-15T09:42:38;73.80;;;66.70;;
15281;SDS011;7742;44.320;19.820;2022-11-15T09:45:17;76.03;;;68.40;;
15281;SDS011;7742;44.320;19.820;2022-11-15T09:48:03;75.53;;;67.87;;
15281;SDS011;7742;44.320;19.820;2022-11-15T09:50:41;72.67;;;65.67;;
15281;SDS011;7742;44.320;19.820;2022-11-15T09:53:12;67.30;;;60.60;;
15281;SDS011;7742;44.320;19.820;2022-11-15T09:55:58;73.03;;;65.77;;
15281;SDS011;7742;44.320;19.820;2022-11-15T09:58:29;79.70;;;71.73;;
15281;SDS011;7742;44.320;19.820;2022-11-15T10:01:02;78.53;;;70.67;;
15281;SDS011;7742;44.320;19.820;2022-11-15T10:03:34;79.37;;;71.63;;
15281;SDS011;7742;44.320;19.820;2022-11-15T10:06:02;81.57;;;74.00;;
15281;SDS011;7742;44.320;19.820;2022-11-15T10:08:37;82.60;;;74.60;;
15281;SDS011;7742;44.320;19.820;2022-11-15T10:11:22;84.93;;;76.83;;
15281;SDS011;7742;44.320;19.820;2022-11-15T10:13:52;79.83;;;72.20;;
15281;SDS011;7742;44.320;19.820;2022-11-15T10:16:25;81.13;;;73.03;;
15281;SDS011;7742;44.320;19.820;2022-11-15T10:19:12;83.07;;;75.10;;
15281;SDS011;7742;44.320;19.820;2022-11-15T10:21:46;79.67;;;71.93;;
15281;SDS011;7742;44.320;19.820;2022-11-15T10:24:18;72.43;;;65.73;;
15281;SDS011;7742;44.320;19.820;2022-11-15T10:26:48;79.80;;;72.13;;
15281;SDS011;7742;44.320;19.820;2022-11-15T10:29:19;74.10;;;67.23;;
15281;SDS011;7742;44.320;19.820;2022-11-15T10:31:47;70.23;;;63.57;;
15281;SDS011;7742;44.320;19.820;2022-11-15T10:34:15;70.17;;;63.63;;
15281;SDS011;7742;44.320;19.820;2022-11-15T10:36:44;65.83;;;59.53;;
15281;SDS011;7742;44.320;19.820;2022-11-15T10:39:12;69.43;;;63.00;;
15281;SDS011;7742;44.320;19.820;2022-11-15T10:41:40;65.87;;;59.63;;
15281;SDS011;7742;44.320;19.820;2022-11-15T10:44:12;66.97;;;60.57;;
15281;SDS011;7742;44.320;19.820;2022-11-15T10:46:46;68.87;;;62.10;;
15281;SDS011;7742;44.320;19.820;2022-11-15T10:49:16;71.13;;;64.33;;
15281;SDS011;7742;44.320;19.820;2022-11-15T10:52:00;76.60;;;69.30;;
15281;SDS011;7742;44.320;19.820;2022-11-15T10:54:30;77.10;;;69.60;;
15281;SDS011;7742;44.320;19.820;2022-11-15T10:57:04;73.00;;;65.70;;
15281;SDS011;7742;44.320;19.820;2022-11-15T10:59:35;76.93;;;69.40;;
15281;SDS011;7742;44.320;19.820;2022-11-15T11:02:20;76.97;;;69.33;;
15281;SDS011;7742;44.320;19.820;2022-11-15T11:04:55;75.70;;;68.53;;
15281;SDS011;7742;44.320;19.820;2022-11-15T11:07:25;72.97;;;65.83;;
15281;SDS011;7742;44.320;19.820;2022-11-15T11:09:59;75.97;;;68.67;;
15281;SDS011;7742;44.320;19.820;2022-11-15T11:12:31;73.63;;;66.23;;
15281;SDS011;7742;44.320;19.820;2022-11-15T11:15:08;71.47;;;64.57;;
15281;SDS011;7742;44.320;19.820;2022-11-15T11:17:42;72.00;;;64.80;;
15281;SDS011;7742;44.320;19.820;2022-11-15T11:20:18;74.43;;;67.07;;
15281;SDS011;7742;44.320;19.820;2022-11-15T11:22:53;76.23;;;68.47;;
15281;SDS011;7742;44.320;19.820;2022-11-15T11:25:28;71.80;;;64.40;;
15281;SDS011;7742;44.320;19.820;2022-11-15T11:28:09;73.40;;;66.00;;
15281;SDS011;7742;44.320;19.820;2022-11-15T11:31:00;67.60;;;61.07;;
15281;SDS011;7742;44.320;19.820;2022-11-15T11:33:39;69.27;;;62.60;;
15281;SDS011;7742;44.320;19.820;2022-11-15T11:36:14;71.47;;;64.87;;
15281;SDS011;7742;44.320;19.820;2022-11-15T11:38:50;67.63;;;61.13;;
15281;SDS011;7742;44.320;19.820;2022-11-15T11:41:31;66.57;;;60.00;;
15281;SDS011;7742;44.320;19.820;2022-11-15T11:44:22;64.37;;;58.17;;
15281;SDS011;7742;44.320;19.820;2022-11-15T11:46:58;66.80;;;60.30;;
15281;SDS011;7742;44.320;19.820;2022-11-15T11:49:29;66.20;;;59.97;;
15281;SDS011;7742;44.320;19.820;2022-11-15T11:52:01;61.73;;;56.03;;
15281;SDS011;7742;44.320;19.820;2022-11-15T11:54:32;60.10;;;54.60;;
15281;SDS011;7742;44.320;19.820;2022-11-15T11:57:05;58.67;;;53.17;;
15281;SDS011;7742;44.320;19.820;2022-11-15T11:59:39;60.33;;;54.80;;
15281;SDS011;7742;44.320;19.820;2022-11-15T12:02:14;58.73;;;53.10;;
15281;SDS011;7742;44.320;19.820;2022-11-15T12:04:44;59.90;;;54.17;;
15281;SDS011;7742;44.320;19.820;2022-11-15T12:07:15;63.80;;;57.77;;
15281;SDS011;7742;44.320;19.820;2022-11-15T12:09:44;63.37;;;57.20;;
15281;SDS011;7742;44.320;19.820;2022-11-15T12:12:17;61.60;;;55.87;;
15281;SDS011;7742;44.320;19.820;2022-11-15T12:14:49;61.43;;;55.73;;
15281;SDS011;7742;44.320;19.820;2022-11-15T12:17:21;59.50;;;53.90;;
15281;SDS011;7742;44.320;19.820;2022-11-15T12:19:57;60.97;;;54.87;;
15281;SDS011;7742;44.320;19.820;2022-11-15T12:22:28;55.37;;;50.13;;
15281;SDS011;7742;44.320;19.820;2022-11-15T12:25:03;56.83;;;51.57;;
15281;SDS011;7742;44.320;19.820;2022-11-15T12:27:35;58.23;;;52.83;;
15281;SDS011;7742;44.320;19.820;2022-11-15T12:30:08;57.47;;;52.17;;
15281;SDS011;7742;44.320;19.820;2022-11-15T12:32:40;53.43;;;48.73;;
15281;SDS011;7742;44.320;19.820;2022-11-15T12:35:22;52.90;;;47.80;;
15281;SDS011;7742;44.320;19.820;2022-11-15T12:37:52;49.40;;;45.07;;
15281;SDS011;7742;44.320;19.820;2022-11-15T12:40:24;51.03;;;46.37;;
15281;SDS011;7742;44.320;19.820;2022-11-15T12:45:56;50.40;;;45.83;;
15281;SDS011;7742;44.320;19.820;2022-11-15T12:51:22;46.47;;;42.13;;
15281;SDS011;7742;44.320;19.820;2022-11-15T13:03:26;47.37;;;42.93;;
15281;SDS011;7742;44.320;19.820;2022-11-15T13:06:01;47.93;;;43.53;;
15281;SDS011;7742;44.320;19.820;2022-11-15T13:08:40;46.63;;;42.33;;
15281;SDS011;7742;44.320;19.820;2022-11-15T13:17:27;53.90;;;48.97;;
15281;SDS011;7742;44.320;19.820;2022-11-15T13:20:08;53.60;;;48.40;;
15281;SDS011;7742;44.320;19.820;2022-11-15T13:22:51;54.63;;;49.40;;
15281;SDS011;7742;44.320;19.820;2022-11-15T13:28:34;56.83;;;51.50;;
15281;SDS011;7742;44.320;19.820;2022-11-15T13:31:14;64.80;;;58.70;;
15281;SDS011;7742;44.320;19.820;2022-11-15T13:33:49;64.93;;;58.80;;
15281;SDS011;7742;44.320;19.820;2022-11-15T13:36:18;60.67;;;54.53;;
15281;SDS011;7742;44.320;19.820;2022-11-15T13:38:55;59.43;;;53.83;;
15281;SDS011;7742;44.320;19.820;2022-11-15T13:41:25;62.80;;;56.23;;
15281;SDS011;7742;44.320;19.820;2022-11-15T13:43:53;62.13;;;56.07;;
15281;SDS011;7742;44.320;19.820;2022-11-15T13:46:22;59.90;;;54.03;;
15281;SDS011;7742;44.320;19.820;2022-11-15T13:48:54;60.43;;;54.73;;
15281;SDS011;7742;44.320;19.820;2022-11-15T13:51:28;64.60;;;58.10;;
15281;SDS011;7742;44.320;19.820;2022-11-15T13:54:01;59.13;;;53.73;;
15281;SDS011;7742;44.320;19.820;2022-11-15T13:56:39;63.07;;;57.07;;
15281;SDS011;7742;44.320;19.820;2022-11-15T13:59:08;64.80;;;58.33;;
15281;SDS011;7742;44.320;19.820;2022-11-15T14:01:36;65.60;;;59.20;;
15281;SDS011;7742;44.320;19.820;2022-11-15T14:04:04;58.87;;;53.07;;
15281;SDS011;7742;44.320;19.820;2022-11-15T14:06:31;63.03;;;57.00;;
15281;SDS011;7742;44.320;19.820;2022-11-15T14:09:02;59.97;;;54.27;;
15281;SDS011;7742;44.320;19.820;2022-11-15T14:11:31;59.77;;;53.97;;
15281;SDS011;7742;44.320;19.820;2022-11-15T14:14:01;60.07;;;54.30;;
15281;SDS011;7742;44.320;19.820;2022-11-15T14:16:38;66.70;;;59.90;;
15281;SDS011;7742;44.320;19.820;2022-11-15T14:19:06;60.57;;;54.53;;
15281;SDS011;7742;44.320;19.820;2022-11-15T14:21:36;61.27;;;55.27;;
15281;SDS011;7742;44.320;19.820;2022-11-15T14:24:18;61.83;;;55.73;;
15281;SDS011;7742;44.320;19.820;2022-11-15T14:26:46;61.93;;;56.13;;
15281;SDS011;7742;44.320;19.820;2022-11-15T14:29:23;58.80;;;53.37;;
15281;SDS011;7742;44.320;19.820;2022-11-15T14:31:51;65.43;;;59.37;;
15281;SDS011;7742;44.320;19.820;2022-11-15T14:34:21;62.47;;;56.37;;
15281;SDS011;7742;44.320;19.820;2022-11-15T14:36:49;63.80;;;57.40;;
15281;SDS011;7742;44.320;19.820;2022-11-15T14:39:18;60.27;;;54.43;;
15281;SDS011;7742;44.320;19.820;2022-11-15T14:41:46;62.67;;;56.60;;
15281;SDS011;7742;44.320;19.820;2022-11-15T14:44:14;62.77;;;56.63;;
15281;SDS011;7742;44.320;19.820;2022-11-15T14:46:43;63.07;;;56.87;;
15281;SDS011;7742;44.320;19.820;2022-11-15T14:49:16;66.43;;;59.73;;
15281;SDS011;7742;44.320;19.820;2022-11-15T14:51:57;67.03;;;60.47;;
15281;SDS011;7742;44.320;19.820;2022-11-15T14:54:26;66.50;;;59.93;;
15281;SDS011;7742;44.320;19.820;2022-11-15T14:57:02;65.77;;;59.00;;
15281;SDS011;7742;44.320;19.820;2022-11-15T14:59:42;67.87;;;61.13;;
15281;SDS011;7742;44.320;19.820;2022-11-15T15:02:10;69.03;;;62.33;;
15281;SDS011;7742;44.320;19.820;2022-11-15T15:05:17;67.00;;;60.23;;
15281;SDS011;7742;44.320;19.820;2022-11-15T15:07:45;64.60;;;58.10;;
15281;SDS011;7742;44.320;19.820;2022-11-15T15:10:16;67.63;;;60.73;;
15281;SDS011;7742;44.320;19.820;2022-11-15T15:15:48;64.77;;;58.17;;
15281;SDS011;7742;44.320;19.820;2022-11-15T15:18:30;65.70;;;59.10;;
15281;SDS011;7742;44.320;19.820;2022-11-15T15:20:58;67.20;;;60.13;;
15281;SDS011;7742;44.320;19.820;2022-11-15T15:23:28;65.53;;;58.73;;
15281;SDS011;7742;44.320;19.820;2022-11-15T15:25:57;63.70;;;56.90;;
15281;SDS011;7742;44.320;19.820;2022-11-15T15:28:25;67.80;;;59.70;;
15281;SDS011;7742;44.320;19.820;2022-11-15T15:30:52;67.07;;;60.00;;
15281;SDS011;7742;44.320;19.820;2022-11-15T15:33:20;69.33;;;62.13;;
15281;SDS011;7742;44.320;19.820;2022-11-15T15:35:47;74.40;;;66.47;;
15281;SDS011;7742;44.320;19.820;2022-11-15T15:38:22;71.40;;;63.43;;
15281;SDS011;7742;44.320;19.820;2022-11-15T15:40:49;73.70;;;65.83;;
15281;SDS011;7742;44.320;19.820;2022-11-15T15:43:18;71.10;;;63.30;;
15281;SDS011;7742;44.320;19.820;2022-11-15T15:45:45;70.43;;;63.13;;
15281;SDS011;7742;44.320;19.820;2022-11-15T15:48:13;72.10;;;64.07;;
15281;SDS011;7742;44.320;19.820;2022-11-15T15:50:42;70.20;;;62.60;;
15281;SDS011;7742;44.320;19.820;2022-11-15T15:53:09;72.23;;;61.70;;
15281;SDS011;7742;44.320;19.820;2022-11-15T15:55:38;67.23;;;59.90;;
15281;SDS011;7742;44.320;19.820;2022-11-15T15:58:05;69.40;;;62.13;;
15281;SDS011;7742;44.320;19.820;2022-11-15T16:00:37;72.90;;;65.07;;
15281;SDS011;7742;44.320;19.820;2022-11-15T16:03:04;74.17;;;66.27;;
15281;SDS011;7742;44.320;19.820;2022-11-15T16:05:32;77.77;;;68.10;;
15281;SDS011;7742;44.320;19.820;2022-11-15T16:08:09;71.27;;;63.47;;
15281;SDS011;7742;44.320;19.820;2022-11-15T16:10:43;72.03;;;64.17;;
15281;SDS011;7742;44.320;19.820;2022-11-15T16:13:10;73.87;;;65.80;;
15281;SDS011;7742;44.320;19.820;2022-11-15T16:19:01;73.60;;;65.50;;
15281;SDS011;7742;44.320;19.820;2022-11-15T16:21:29;73.67;;;65.60;;
15281;SDS011;7742;44.320;19.820;2022-11-15T16:23:56;74.07;;;66.33;;
15281;SDS011;7742;44.320;19.820;2022-11-15T16:26:24;75.17;;;67.03;;
15281;SDS011;7742;44.320;19.820;2022-11-15T16:28:52;77.10;;;68.50;;
15281;SDS011;7742;44.320;19.820;2022-11-15T16:31:19;79.50;;;69.30;;
15281;SDS011;7742;44.320;19.820;2022-11-15T16:33:47;83.67;;;73.47;;
15281;SDS011;7742;44.320;19.820;2022-11-15T16:36:20;86.77;;;75.50;;
15281;SDS011;7742;44.320;19.820;2022-11-15T16:38:48;89.73;;;76.40;;
15281;SDS011;7742;44.320;19.820;2022-11-15T16:41:17;86.67;;;74.67;;
15281;SDS011;7742;44.320;19.820;2022-11-15T16:44:36;87.70;;;72.47;;
15281;SDS011;7742;44.320;19.820;2022-11-15T16:47:04;80.77;;;69.77;;
15281;SDS011;7742;44.320;19.820;2022-11-15T16:49:31;84.17;;;72.93;;
15281;SDS011;7742;44.320;19.820;2022-11-15T16:52:00;82.00;;;72.37;;
15281;SDS011;7742;44.320;19.820;2022-11-15T16:54:27;86.93;;;77.00;;
15281;SDS011;7742;44.320;19.820;2022-11-15T16:56:54;92.17;;;79.33;;
15281;SDS011;7742;44.320;19.820;2022-11-15T16:59:22;97.60;;;80.83;;
15281;SDS011;7742;44.320;19.820;2022-11-15T17:01:49;90.70;;;80.00;;